sensor_id;sensor_type;location;lat;lon;timestamp;pressure;altitude;pressure_sealevel;temperature;humidity
54556;BME280;57291;37.520;15.106;2023-02-12T00:00:43;102893.63;;;6.67;81.33
54556;BME280;57291;37.520;15.106;2023-02-12T00:03:11;102900.72;;;6.68;81.24
54556;BME280;57291;37.520;15.106;2023-02-12T00:05:39;102889.72;;;6.63;81.07
54556;BME280;57291;37.520;15.106;2023-02-12T00:08:08;102888.47;;;6.66;81.38
54556;BME280;57291;37.520;15.106;2023-02-12T00:10:42;102889.91;;;6.68;81.12
54556;BME280;57291;37.520;15.106;2023-02-12T00:13:10;102893.00;;;6.72;81.03
54556;BME280;57291;37.520;15.106;2023-02-12T00:15:41;102887.81;;;6.70;80.45
54556;BME280;57291;37.520;15.106;2023-02-12T00:18:08;102894.66;;;6.73;80.47
54556;BME280;57291;37.520;15.106;2023-02-12T00:20:37;102875.75;;;6.73;80.14
54556;BME280;57291;37.520;15.106;2023-02-12T00:23:05;102886.31;;;6.74;80.41
54556;BME280;57291;37.520;15.106;2023-02-12T00:25:33;102883.03;;;6.72;80.56
54556;BME280;57291;37.520;15.106;2023-02-12T00:28:01;102879.50;;;6.72;80.44
54556;BME280;57291;37.520;15.106;2023-02-12T00:30:28;102888.44;;;6.72;80.46
54556;BME280;57291;37.520;15.106;2023-02-12T00:32:55;102881.16;;;6.73;80.79
54556;BME280;57291;37.520;15.106;2023-02-12T00:35:22;102877.63;;;6.72;80.92
54556;BME280;57291;37.520;15.106;2023-02-12T00:37:49;102873.03;;;6.73;81.32
54556;BME280;57291;37.520;15.106;2023-02-12T00:40:17;102868.69;;;6.72;81.34
54556;BME280;57291;37.520;15.106;2023-02-12T00:42:44;102874.28;;;6.70;81.17
54556;BME280;57291;37.520;15.106;2023-02-12T00:45:11;102868.50;;;6.67;80.97
54556;BME280;57291;37.520;15.106;2023-02-12T00:47:39;102859.38;;;6.61;81.04
54556;BME280;57291;37.520;15.106;2023-02-12T00:50:07;102862.50;;;6.58;81.39
54556;BME280;57291;37.520;15.106;2023-02-12T00:52:34;102860.03;;;6.56;81.34
54556;BME280;57291;37.520;15.106;2023-02-12T00:55:02;102862.97;;;6.55;81.20
54556;BME280;57291;37.520;15.106;2023-02-12T00:57:29;102856.66;;;6.61;81.13
54556;BME280;57291;37.520;15.106;2023-02-12T00:59:56;102851.69;;;6.65;80.74
54556;BME280;57291;37.520;15.106;2023-02-12T01:02:24;102859.28;;;6.74;80.63
54556;BME280;57291;37.520;15.106;2023-02-12T01:04:51;102851.19;;;6.74;80.67
54556;BME280;57291;37.520;15.106;2023-02-12T01:07:22;102848.31;;;6.69;81.01
54556;BME280;57291;37.520;15.106;2023-02-12T01:09:49;102852.28;;;6.67;81.51
54556;BME280;57291;37.520;15.106;2023-02-12T01:12:16;102840.69;;;6.60;81.40
54556;BME280;57291;37.520;15.106;2023-02-12T01:14:43;102840.09;;;6.51;81.97
54556;BME280;57291;37.520;15.106;2023-02-12T01:17:10;102842.84;;;6.44;81.56
54556;BME280;57291;37.520;15.106;2023-02-12T01:19:37;102842.88;;;6.38;81.92
54556;BME280;57291;37.520;15.106;2023-02-12T01:22:05;102847.28;;;6.32;81.93
54556;BME280;57291;37.520;15.106;2023-02-12T01:24:32;102846.44;;;6.31;82.21
54556;BME280;57291;37.520;15.106;2023-02-12T01:27:00;102842.31;;;6.29;81.84
54556;BME280;57291;37.520;15.106;2023-02-12T01:29:28;102839.22;;;6.25;81.60
54556;BME280;57291;37.520;15.106;2023-02-12T01:31:55;102838.19;;;6.20;81.82
54556;BME280;57291;37.520;15.106;2023-02-12T01:34:22;102835.09;;;6.16;81.96
54556;BME280;57291;37.520;15.106;2023-02-12T01:36:51;102824.09;;;6.11;82.03
54556;BME280;57291;37.520;15.106;2023-02-12T01:39:18;102818.88;;;6.16;82.80
54556;BME280;57291;37.520;15.106;2023-02-12T01:41:45;102827.59;;;6.18;82.71
54556;BME280;57291;37.520;15.106;2023-02-12T01:44:13;102826.34;;;6.21;82.54
54556;BME280;57291;37.520;15.106;2023-02-12T01:46:43;102827.34;;;6.26;82.63
54556;BME280;57291;37.520;15.106;2023-02-12T01:49:20;102818.84;;;6.23;82.10
54556;BME280;57291;37.520;15.106;2023-02-12T01:51:51;102823.22;;;6.24;82.42
54556;BME280;57291;37.520;15.106;2023-02-12T01:54:21;102815.75;;;6.19;81.73
54556;BME280;57291;37.520;15.106;2023-02-12T01:56:52;102817.22;;;6.15;81.79
54556;BME280;57291;37.520;15.106;2023-02-12T01:59:19;102816.41;;;6.08;81.07
54556;BME280;57291;37.520;15.106;2023-02-12T02:01:47;102820.38;;;6.05;81.07
54556;BME280;57291;37.520;15.106;2023-02-12T02:04:18;102816.66;;;6.00;80.86
54556;BME280;57291;37.520;15.106;2023-02-12T02:07:01;102810.44;;;5.99;80.00
54556;BME280;57291;37.520;15.106;2023-02-12T02:09:31;102804.41;;;5.97;79.78
54556;BME280;57291;37.520;15.106;2023-02-12T02:12:00;102804.84;;;5.94;79.44
54556;BME280;57291;37.520;15.106;2023-02-12T02:14:47;102797.16;;;5.91;79.11
54556;BME280;57291;37.520;15.106;2023-02-12T02:17:37;102787.41;;;5.90;79.29
54556;BME280;57291;37.520;15.106;2023-02-12T02:20:39;102794.44;;;5.91;79.02
54556;BME280;57291;37.520;15.106;2023-02-12T02:31:35;102790.28;;;6.02;77.56
54556;BME280;57291;37.520;15.106;2023-02-12T02:34:16;102783.22;;;6.01;77.81
54556;BME280;57291;37.520;15.106;2023-02-12T02:37:18;102780.75;;;5.99;78.01
54556;BME280;57291;37.520;15.106;2023-02-12T02:42:33;102778.91;;;5.93;77.61
54556;BME280;57291;37.520;15.106;2023-02-12T02:47:55;102767.25;;;5.99;77.64
54556;BME280;57291;37.520;15.106;2023-02-12T02:50:25;102776.78;;;6.02;76.86
54556;BME280;57291;37.520;15.106;2023-02-12T02:52:59;102769.09;;;5.99;76.27
54556;BME280;57291;37.520;15.106;2023-02-12T02:55:35;102776.56;;;6.03;76.18
54556;BME280;57291;37.520;15.106;2023-02-12T02:58:13;102779.47;;;6.02;75.85
54556;BME280;57291;37.520;15.106;2023-02-12T03:01:00;102782.19;;;6.02;75.76
54556;BME280;57291;37.520;15.106;2023-02-12T03:06:18;102777.59;;;6.09;75.94
54556;BME280;57291;37.520;15.106;2023-02-12T03:09:14;102782.38;;;6.07;75.83
54556;BME280;57291;37.520;15.106;2023-02-12T03:11:43;102773.88;;;6.03;75.56
54556;BME280;57291;37.520;15.106;2023-02-12T03:14:21;102782.41;;;6.00;75.59
54556;BME280;57291;37.520;15.106;2023-02-12T03:16:55;102779.06;;;5.98;75.84
54556;BME280;57291;37.520;15.106;2023-02-12T03:19:29;102778.47;;;5.96;76.22
54556;BME280;57291;37.520;15.106;2023-02-12T03:22:08;102774.31;;;6.00;76.36
54556;BME280;57291;37.520;15.106;2023-02-12T03:24:40;102780.53;;;6.01;76.42
54556;BME280;57291;37.520;15.106;2023-02-12T03:27:17;102775.13;;;6.01;76.90
54556;BME280;57291;37.520;15.106;2023-02-12T03:29:46;102770.78;;;6.00;76.91
54556;BME280;57291;37.520;15.106;2023-02-12T03:35:21;102770.78;;;6.00;77.20
54556;BME280;57291;37.520;15.106;2023-02-12T03:37:57;102758.31;;;5.99;77.67
54556;BME280;57291;37.520;15.106;2023-02-12T03:40:39;102759.56;;;6.03;77.90
54556;BME280;57291;37.520;15.106;2023-02-12T03:43:10;102759.13;;;6.06;77.57
54556;BME280;57291;37.520;15.106;2023-02-12T03:45:46;102752.06;;;6.05;77.63
54556;BME280;57291;37.520;15.106;2023-02-12T03:48:25;102747.47;;;6.05;77.31
54556;BME280;57291;37.520;15.106;2023-02-12T03:50:57;102746.66;;;6.05;78.08
54556;BME280;57291;37.520;15.106;2023-02-12T03:53:26;102739.22;;;6.00;78.07
54556;BME280;57291;37.520;15.106;2023-02-12T03:56:11;102747.09;;;6.02;78.58
54556;BME280;57291;37.520;15.106;2023-02-12T03:58:40;102745.28;;;5.96;78.37
54556;BME280;57291;37.520;15.106;2023-02-12T04:01:09;102739.25;;;5.94;78.70
54556;BME280;57291;37.520;15.106;2023-02-12T04:03:38;102741.72;;;5.88;79.03
54556;BME280;57291;37.520;15.106;2023-02-12T04:06:21;102736.16;;;5.83;79.12
54556;BME280;57291;37.520;15.106;2023-02-12T04:08:49;102739.91;;;5.82;79.60
54556;BME280;57291;37.520;15.106;2023-02-12T04:23:10;102737.81;;;5.78;80.89
54556;BME280;57291;37.520;15.106;2023-02-12T04:26:59;102740.94;;;5.75;81.34
54556;BME280;57291;37.520;15.106;2023-02-12T04:31:39;102746.19;;;5.70;81.90
54556;BME280;57291;37.520;15.106;2023-02-12T04:37:03;102747.41;;;5.67;82.69
54556;BME280;57291;37.520;15.106;2023-02-12T04:39:33;102756.31;;;5.74;82.63
54556;BME280;57291;37.520;15.106;2023-02-12T04:42:03;102748.00;;;5.69;82.60
54556;BME280;57291;37.520;15.106;2023-02-12T04:44:36;102746.78;;;5.65;82.59
54556;BME280;57291;37.520;15.106;2023-02-12T04:47:03;102743.69;;;5.61;83.29
54556;BME280;57291;37.520;15.106;2023-02-12T04:49:30;102746.41;;;5.61;83.24
54556;BME280;57291;37.520;15.106;2023-02-12T04:51:58;102741.63;;;5.63;83.84
54556;BME280;57291;37.520;15.106;2023-02-12T04:54:25;102743.66;;;5.68;84.08
54556;BME280;57291;37.520;15.106;2023-02-12T04:56:52;102743.50;;;5.63;83.70
54556;BME280;57291;37.520;15.106;2023-02-12T04:59:19;102740.59;;;5.58;83.28
54556;BME280;57291;37.520;15.106;2023-02-12T05:01:46;102747.03;;;5.57;83.74
54556;BME280;57291;37.520;15.106;2023-02-12T05:04:15;102743.94;;;5.53;83.80
54556;BME280;57291;37.520;15.106;2023-02-12T05:06:43;102752.03;;;5.53;84.25
54556;BME280;57291;37.520;15.106;2023-02-12T05:09:18;102738.97;;;5.50;84.25
54556;BME280;57291;37.520;15.106;2023-02-12T05:11:45;102745.19;;;5.51;84.21
54556;BME280;57291;37.520;15.106;2023-02-12T05:14:13;102742.69;;;5.49;84.83
54556;BME280;57291;37.520;15.106;2023-02-12T05:16:40;102744.78;;;5.47;84.89
54556;BME280;57291;37.520;15.106;2023-02-12T05:19:07;102745.81;;;5.46;85.29
54556;BME280;57291;37.520;15.106;2023-02-12T05:21:36;102735.66;;;5.48;84.93
54556;BME280;57291;37.520;15.106;2023-02-12T05:24:03;102740.22;;;5.48;85.20
54556;BME280;57291;37.520;15.106;2023-02-12T05:26:31;102742.28;;;5.46;85.47
54556;BME280;57291;37.520;15.106;2023-02-12T05:28:58;102737.94;;;5.45;85.26
54556;BME280;57291;37.520;15.106;2023-02-12T05:31:25;102742.09;;;5.47;85.48
54556;BME280;57291;37.520;15.106;2023-02-12T05:33:52;102742.91;;;5.54;85.41
54556;BME280;57291;37.520;15.106;2023-02-12T05:36:22;102743.91;;;5.60;85.23
54556;BME280;57291;37.520;15.106;2023-02-12T05:38:51;102738.53;;;5.60;84.78
54556;BME280;57291;37.520;15.106;2023-02-12T05:41:21;102737.06;;;5.57;84.54
54556;BME280;57291;37.520;15.106;2023-02-12T05:43:49;102735.03;;;5.53;84.52
54556;BME280;57291;37.520;15.106;2023-02-12T05:46:17;102746.25;;;5.50;84.78
54556;BME280;57291;37.520;15.106;2023-02-12T05:48:46;102747.69;;;5.46;84.46
54556;BME280;57291;37.520;15.106;2023-02-12T05:51:16;102748.09;;;5.43;84.87
54556;BME280;57291;37.520;15.106;2023-02-12T05:53:43;102743.34;;;5.38;84.97
54556;BME280;57291;37.520;15.106;2023-02-12T05:58:39;102746.25;;;5.43;86.09
54556;BME280;57291;37.520;15.106;2023-02-12T06:01:18;102742.06;;;5.54;86.26
54556;BME280;57291;37.520;15.106;2023-02-12T06:03:46;102748.88;;;5.70;86.61
54556;BME280;57291;37.520;15.106;2023-02-12T06:06:14;102744.84;;;5.85;86.93
54556;BME280;57291;37.520;15.106;2023-02-12T06:08:41;102752.88;;;6.12;87.87
54556;BME280;57291;37.520;15.106;2023-02-12T06:11:12;102750.59;;;6.41;87.89
54556;BME280;57291;37.520;15.106;2023-02-12T06:13:40;102761.56;;;6.77;87.46
54556;BME280;57291;37.520;15.106;2023-02-12T06:16:16;102745.53;;;7.08;86.24
54556;BME280;57291;37.520;15.106;2023-02-12T06:18:44;102752.69;;;7.39;84.95
54556;BME280;57291;37.520;15.106;2023-02-12T06:21:11;102752.09;;;7.73;83.93
54556;BME280;57291;37.520;15.106;2023-02-12T06:23:39;102752.72;;;8.06;82.76
54556;BME280;57291;37.520;15.106;2023-02-12T06:26:06;102745.06;;;8.33;79.35
54556;BME280;57291;37.520;15.106;2023-02-12T06:28:33;102745.03;;;8.51;75.07
54556;BME280;57291;37.520;15.106;2023-02-12T06:31:01;102749.19;;;8.77;72.73
54556;BME280;57291;37.520;15.106;2023-02-12T06:33:29;102757.97;;;9.03;69.60
54556;BME280;57291;37.520;15.106;2023-02-12T06:35:56;102754.41;;;9.37;69.83
54556;BME280;57291;37.520;15.106;2023-02-12T06:38:23;102749.13;;;9.83;67.25
54556;BME280;57291;37.520;15.106;2023-02-12T06:40:50;102752.59;;;10.07;65.08
54556;BME280;57291;37.520;15.106;2023-02-12T06:43:17;102764.34;;;10.24;62.75
54556;BME280;57291;37.520;15.106;2023-02-12T06:45:44;102767.25;;;10.63;63.03
54556;BME280;57291;37.520;15.106;2023-02-12T06:48:12;102756.94;;;11.16;62.45
54556;BME280;57291;37.520;15.106;2023-02-12T06:50:39;102749.41;;;11.45;59.91
54556;BME280;57291;37.520;15.106;2023-02-12T06:53:06;102757.09;;;11.70;58.78
54556;BME280;57291;37.520;15.106;2023-02-12T06:55:33;102745.47;;;11.53;57.50
54556;BME280;57291;37.520;15.106;2023-02-12T06:58:00;102748.09;;;11.09;57.18
54556;BME280;57291;37.520;15.106;2023-02-12T07:00:27;102738.53;;;10.72;57.98
54556;BME280;57291;37.520;15.106;2023-02-12T07:02:55;102747.94;;;10.48;58.16
54556;BME280;57291;37.520;15.106;2023-02-12T07:05:22;102743.63;;;10.35;58.72
54556;BME280;57291;37.520;15.106;2023-02-12T07:07:50;102747.03;;;10.14;59.13
54556;BME280;57291;37.520;15.106;2023-02-12T07:10:17;102750.69;;;10.07;59.33
54556;BME280;57291;37.520;15.106;2023-02-12T07:12:45;102742.78;;;10.06;59.19
54556;BME280;57291;37.520;15.106;2023-02-12T07:15:12;102748.22;;;10.06;58.96
54556;BME280;57291;37.520;15.106;2023-02-12T07:17:40;102745.34;;;10.13;58.39
54556;BME280;57291;37.520;15.106;2023-02-12T07:20:07;102747.34;;;10.17;58.34
54556;BME280;57291;37.520;15.106;2023-02-12T07:22:35;102744.50;;;10.24;58.24
54556;BME280;57291;37.520;15.106;2023-02-12T07:25:03;102749.16;;;10.40;58.09
54556;BME280;57291;37.520;15.106;2023-02-12T07:27:30;102746.03;;;10.48;57.26
54556;BME280;57291;37.520;15.106;2023-02-12T07:29:57;102746.78;;;10.61;56.24
54556;BME280;57291;37.520;15.106;2023-02-12T07:32:25;102738.16;;;10.64;54.63
54556;BME280;57291;37.520;15.106;2023-02-12T07:34:52;102738.47;;;10.67;53.87
54556;BME280;57291;37.520;15.106;2023-02-12T07:37:19;102748.28;;;10.68;52.63
54556;BME280;57291;37.520;15.106;2023-02-12T07:39:48;102743.91;;;10.67;52.54
54556;BME280;57291;37.520;15.106;2023-02-12T07:42:16;102741.19;;;10.67;53.00
54556;BME280;57291;37.520;15.106;2023-02-12T07:44:48;102734.94;;;10.67;52.09
54556;BME280;57291;37.520;15.106;2023-02-12T07:47:15;102736.66;;;10.73;52.76
54556;BME280;57291;37.520;15.106;2023-02-12T07:49:42;102732.72;;;10.80;52.47
54556;BME280;57291;37.520;15.106;2023-02-12T07:52:10;102732.59;;;10.92;52.17
54556;BME280;57291;37.520;15.106;2023-02-12T07:54:39;102724.53;;;10.97;51.09
54556;BME280;57291;37.520;15.106;2023-02-12T07:57:06;102730.72;;;11.10;51.59
54556;BME280;57291;37.520;15.106;2023-02-12T07:59:33;102728.38;;;11.18;50.72
54556;BME280;57291;37.520;15.106;2023-02-12T08:02:00;102729.25;;;11.24;50.44
54556;BME280;57291;37.520;15.106;2023-02-12T08:04:27;102732.91;;;11.30;50.55
54556;BME280;57291;37.520;15.106;2023-02-12T08:06:55;102733.22;;;11.33;50.07
54556;BME280;57291;37.520;15.106;2023-02-12T08:09:25;102728.66;;;11.39;50.86
54556;BME280;57291;37.520;15.106;2023-02-12T08:11:52;102726.19;;;11.37;49.86
54556;BME280;57291;37.520;15.106;2023-02-12T08:14:20;102733.97;;;11.50;50.77
54556;BME280;57291;37.520;15.106;2023-02-12T08:16:48;102723.78;;;11.63;50.86
54556;BME280;57291;37.520;15.106;2023-02-12T08:19:16;102727.59;;;11.62;49.94
54556;BME280;57291;37.520;15.106;2023-02-12T08:21:51;102728.22;;;11.69;50.71
54556;BME280;57291;37.520;15.106;2023-02-12T08:24:18;102722.91;;;11.79;50.88
54556;BME280;57291;37.520;15.106;2023-02-12T08:26:48;102729.28;;;11.68;50.06
54556;BME280;57291;37.520;15.106;2023-02-12T08:29:18;102733.59;;;11.64;49.78
54556;BME280;57291;37.520;15.106;2023-02-12T08:31:47;102727.03;;;11.60;49.73
54556;BME280;57291;37.520;15.106;2023-02-12T08:34:22;102730.84;;;11.59;49.55
54556;BME280;57291;37.520;15.106;2023-02-12T08:36:51;102731.75;;;11.47;49.45
54556;BME280;57291;37.520;15.106;2023-02-12T08:39:24;102741.22;;;11.62;49.97
54556;BME280;57291;37.520;15.106;2023-02-12T08:41:56;102722.78;;;11.69;49.69
54556;BME280;57291;37.520;15.106;2023-02-12T08:44:24;102723.28;;;11.66;49.14
54556;BME280;57291;37.520;15.106;2023-02-12T08:46:52;102721.47;;;11.71;50.04
54556;BME280;57291;37.520;15.106;2023-02-12T08:49:27;102718.53;;;11.78;49.93
54556;BME280;57291;37.520;15.106;2023-02-12T08:51:57;102715.03;;;11.83;49.40
54556;BME280;57291;37.520;15.106;2023-02-12T08:54:26;102718.28;;;12.02;49.50
54556;BME280;57291;37.520;15.106;2023-02-12T08:56:54;102716.56;;;12.23;49.97
54556;BME280;57291;37.520;15.106;2023-02-12T08:59:22;102707.94;;;12.31;48.43
54556;BME280;57291;37.520;15.106;2023-02-12T09:01:51;102706.56;;;12.28;48.71
54556;BME280;57291;37.520;15.106;2023-02-12T09:04:21;102712.63;;;12.35;48.51
54556;BME280;57291;37.520;15.106;2023-02-12T09:06:49;102726.72;;;12.59;49.31
54556;BME280;57291;37.520;15.106;2023-02-12T09:09:16;102723.53;;;12.67;47.68
54556;BME280;57291;37.520;15.106;2023-02-12T09:11:45;102717.78;;;12.64;46.46
54556;BME280;57291;37.520;15.106;2023-02-12T09:14:15;102723.84;;;12.76;47.17
54556;BME280;57291;37.520;15.106;2023-02-12T09:16:43;102720.91;;;12.83;46.71
54556;BME280;57291;37.520;15.106;2023-02-12T09:19:13;102721.19;;;12.81;46.22
54556;BME280;57291;37.520;15.106;2023-02-12T09:21:41;102718.78;;;12.90;46.84
54556;BME280;57291;37.520;15.106;2023-02-12T09:24:09;102715.31;;;13.05;46.63
54556;BME280;57291;37.520;15.106;2023-02-12T09:26:36;102718.94;;;13.15;45.68
54556;BME280;57291;37.520;15.106;2023-02-12T09:29:04;102711.56;;;13.16;44.54
54556;BME280;57291;37.520;15.106;2023-02-12T09:31:32;102716.63;;;13.34;45.68
54556;BME280;57291;37.520;15.106;2023-02-12T09:34:04;102707.91;;;13.37;45.29
54556;BME280;57291;37.520;15.106;2023-02-12T09:36:32;102708.44;;;13.34;44.53
54556;BME280;57291;37.520;15.106;2023-02-12T09:38:59;102712.31;;;13.44;44.56
54556;BME280;57291;37.520;15.106;2023-02-12T09:41:56;102711.25;;;13.50;43.75
54556;BME280;57291;37.520;15.106;2023-02-12T09:47:17;102712.94;;;13.66;43.46
54556;BME280;57291;37.520;15.106;2023-02-12T09:50:05;102710.81;;;13.83;43.62
54556;BME280;57291;37.520;15.106;2023-02-12T09:52:36;102716.03;;;13.95;43.21
54556;BME280;57291;37.520;15.106;2023-02-12T09:55:04;102719.25;;;13.77;42.61
54556;BME280;57291;37.520;15.106;2023-02-12T09:57:33;102717.03;;;13.64;42.16
54556;BME280;57291;37.520;15.106;2023-02-12T10:02:37;102702.06;;;13.92;42.28
54556;BME280;57291;37.520;15.106;2023-02-12T10:05:15;102700.41;;;13.80;40.44
54556;BME280;57291;37.520;15.106;2023-02-12T10:10:52;102692.25;;;14.01;42.46
54556;BME280;57291;37.520;15.106;2023-02-12T10:16:12;102693.63;;;13.93;42.86
54556;BME280;57291;37.520;15.106;2023-02-12T10:25:01;102691.47;;;14.21;42.30
54556;BME280;57291;37.520;15.106;2023-02-12T10:26:59;102686.03;;;14.41;41.86
54556;BME280;57291;37.520;15.106;2023-02-12T10:29:31;102687.38;;;14.44;41.17
54556;BME280;57291;37.520;15.106;2023-02-12T10:34:40;102683.56;;;14.70;41.49
54556;BME280;57291;37.520;15.106;2023-02-12T10:37:13;102687.38;;;14.80;40.29
54556;BME280;57291;37.520;15.106;2023-02-12T10:39:51;102682.41;;;14.97;40.58
54556;BME280;57291;37.520;15.106;2023-02-12T10:42:39;102664.34;;;15.01;39.23
54556;BME280;57291;37.520;15.106;2023-02-12T10:45:13;102673.63;;;15.20;39.52
54556;BME280;57291;37.520;15.106;2023-02-12T10:47:41;102668.13;;;15.20;39.43
54556;BME280;57291;37.520;15.106;2023-02-12T10:50:21;102662.06;;;15.29;40.13
54556;BME280;57291;37.520;15.106;2023-02-12T10:52:55;102659.63;;;15.22;39.76
54556;BME280;57291;37.520;15.106;2023-02-12T10:55:31;102659.22;;;15.49;40.16
54556;BME280;57291;37.520;15.106;2023-02-12T10:58:00;102646.31;;;15.55;39.66
54556;BME280;57291;37.520;15.106;2023-02-12T11:00:31;102654.25;;;15.56;39.76
54556;BME280;57291;37.520;15.106;2023-02-12T11:03:01;102649.06;;;15.55;39.07
54556;BME280;57291;37.520;15.106;2023-02-12T11:05:31;102645.75;;;15.58;39.71
54556;BME280;57291;37.520;15.106;2023-02-12T11:08:01;102641.59;;;15.65;39.89
54556;BME280;57291;37.520;15.106;2023-02-12T11:10:31;102640.56;;;15.66;40.82
54556;BME280;57291;37.520;15.106;2023-02-12T11:13:00;102644.91;;;15.67;40.03
54556;BME280;57291;37.520;15.106;2023-02-12T11:15:37;102636.94;;;15.66;39.48
54556;BME280;57291;37.520;15.106;2023-02-12T11:18:22;102630.41;;;15.67;39.83
54556;BME280;57291;37.520;15.106;2023-02-12T11:21:02;102631.44;;;15.66;39.35
54556;BME280;57291;37.520;15.106;2023-02-12T11:23:33;102623.53;;;15.64;39.70
54556;BME280;57291;37.520;15.106;2023-02-12T11:26:21;102619.38;;;15.77;39.02
54556;BME280;57291;37.520;15.106;2023-02-12T11:31:40;102615.59;;;15.68;39.16
54556;BME280;57291;37.520;15.106;2023-02-12T11:34:13;102612.47;;;15.85;39.83
54556;BME280;57291;37.520;15.106;2023-02-12T11:36:44;102603.66;;;15.88;38.65
54556;BME280;57291;37.520;15.106;2023-02-12T11:42:06;102602.63;;;15.29;39.01
54556;BME280;57291;37.520;15.106;2023-02-12T11:44:47;102592.94;;;15.47;39.33
54556;BME280;57291;37.520;15.106;2023-02-12T11:47:20;102585.66;;;15.77;38.12
54556;BME280;57291;37.520;15.106;2023-02-12T11:49:51;102565.31;;;15.38;37.29
54556;BME280;57291;37.520;15.106;2023-02-12T11:52:23;102586.13;;;15.39;37.33
54556;BME280;57291;37.520;15.106;2023-02-12T11:54:53;102578.13;;;15.53;37.20
54556;BME280;57291;37.520;15.106;2023-02-12T11:57:38;102580.00;;;15.53;37.89
54556;BME280;57291;37.520;15.106;2023-02-12T12:00:20;102579.56;;;15.40;37.76
54556;BME280;57291;37.520;15.106;2023-02-12T12:03:02;102575.09;;;15.49;38.64
54556;BME280;57291;37.520;15.106;2023-02-12T12:05:35;102569.28;;;15.56;38.61
54556;BME280;57291;37.520;15.106;2023-02-12T12:08:13;102563.44;;;15.78;38.20
54556;BME280;57291;37.520;15.106;2023-02-12T12:10:50;102568.22;;;15.52;38.12
54556;BME280;57291;37.520;15.106;2023-02-12T12:13:29;102552.19;;;15.35;39.69
54556;BME280;57291;37.520;15.106;2023-02-12T12:16:26;102546.94;;;15.44;39.65
54556;BME280;57291;37.520;15.106;2023-02-12T12:19:31;102539.03;;;15.32;40.31
54556;BME280;57291;37.520;15.106;2023-02-12T12:24:56;102535.06;;;15.09;41.42
54556;BME280;57291;37.520;15.106;2023-02-12T12:27:41;102535.69;;;14.96;40.94
54556;BME280;57291;37.520;15.106;2023-02-12T12:33:09;102525.66;;;15.65;40.18
54556;BME280;57291;37.520;15.106;2023-02-12T12:38:59;102532.75;;;15.32;44.34
54556;BME280;57291;37.520;15.106;2023-02-12T12:45:00;102524.56;;;15.27;45.17
54556;BME280;57291;37.520;15.106;2023-02-12T13:06:31;102506.31;;;15.12;47.13
54556;BME280;57291;37.520;15.106;2023-02-12T13:16:52;102489.19;;;14.91;45.63
54556;BME280;57291;37.520;15.106;2023-02-12T13:22:10;102486.25;;;15.21;47.38
54556;BME280;57291;37.520;15.106;2023-02-12T13:24:45;102479.47;;;15.09;48.06
54556;BME280;57291;37.520;15.106;2023-02-12T13:30:38;102486.97;;;14.93;49.90
54556;BME280;57291;37.520;15.106;2023-02-12T13:32:59;102488.34;;;14.90;48.73
54556;BME280;57291;37.520;15.106;2023-02-12T13:35:30;102481.28;;;14.84;48.58
54556;BME280;57291;37.520;15.106;2023-02-12T13:37:59;102489.19;;;14.86;49.49
54556;BME280;57291;37.520;15.106;2023-02-12T13:40:29;102488.34;;;14.90;48.69
54556;BME280;57291;37.520;15.106;2023-02-12T13:43:17;102488.94;;;14.82;48.91
54556;BME280;57291;37.520;15.106;2023-02-12T13:46:23;102491.47;;;14.63;49.65
54556;BME280;57291;37.520;15.106;2023-02-12T13:51:43;102495.06;;;14.59;48.80
54556;BME280;57291;37.520;15.106;2023-02-12T13:56:54;102495.88;;;14.64;48.15
54556;BME280;57291;37.520;15.106;2023-02-12T14:02:02;102491.75;;;14.62;50.72
54556;BME280;57291;37.520;15.106;2023-02-12T14:07:07;102492.56;;;14.62;50.44
54556;BME280;57291;37.520;15.106;2023-02-12T14:14:54;102498.09;;;14.52;49.62
54556;BME280;57291;37.520;15.106;2023-02-12T14:20:26;102503.56;;;14.42;48.55
54556;BME280;57291;37.520;15.106;2023-02-12T14:23:26;102497.81;;;14.28;48.96
54556;BME280;57291;37.520;15.106;2023-02-12T14:28:30;102503.81;;;14.40;49.41
54556;BME280;57291;37.520;15.106;2023-02-12T14:33:50;102506.56;;;14.45;50.59
54556;BME280;57291;37.520;15.106;2023-02-12T14:36:35;102505.72;;;14.50;49.44
54556;BME280;57291;37.520;15.106;2023-02-12T14:41:49;102501.69;;;14.22;50.40
54556;BME280;57291;37.520;15.106;2023-02-12T14:46:57;102506.91;;;14.18;51.15
54556;BME280;57291;37.520;15.106;2023-02-12T14:49:33;102497.59;;;14.14;50.55
54556;BME280;57291;37.520;15.106;2023-02-12T14:57:36;102501.41;;;14.28;52.30
54556;BME280;57291;37.520;15.106;2023-02-12T15:03:02;102494.84;;;14.19;52.36
54556;BME280;57291;37.520;15.106;2023-02-12T15:11:01;102500.84;;;14.26;51.24
54556;BME280;57291;37.520;15.106;2023-02-12T15:13:47;102500.81;;;14.37;50.81
54556;BME280;57291;37.520;15.106;2023-02-12T15:16:23;102509.03;;;14.37;51.44
54556;BME280;57291;37.520;15.106;2023-02-12T15:19:12;102506.84;;;14.39;50.80
54556;BME280;57291;37.520;15.106;2023-02-12T15:21:44;102499.72;;;14.43;50.50
54556;BME280;57291;37.520;15.106;2023-02-12T15:24:21;102504.38;;;14.42;51.04
54556;BME280;57291;37.520;15.106;2023-02-12T15:26:51;102508.22;;;14.36;51.49
54556;BME280;57291;37.520;15.106;2023-02-12T15:29:24;102504.66;;;14.30;51.59
54556;BME280;57291;37.520;15.106;2023-02-12T15:31:57;102500.84;;;14.21;51.48
54556;BME280;57291;37.520;15.106;2023-02-12T15:34:26;102508.00;;;14.12;50.49
54556;BME280;57291;37.520;15.106;2023-02-12T15:37:00;102511.28;;;14.04;52.35
54556;BME280;57291;37.520;15.106;2023-02-12T15:39:30;102509.38;;;13.89;53.00
54556;BME280;57291;37.520;15.106;2023-02-12T15:42:00;102513.75;;;13.80;52.06